Time;durP1;ratioP1;P1;durP2;ratioP2;P2;SDS_P1;SDS_P2;PMS_P1;PMS_P2;Temp;Humidity;BMP_temperature;BMP_pressure;BME280_temperature;BME280_humidity;BME280_pressure;Samples;Min_cycle;Max_cycle;Signal;HPM_P1;HPM_P2
2023/04/06 00:02:50;;;;;;;7.82;4.30;;;;;;;1.47;53.10;100232.97;10256733;28;20057;-60
2023/04/06 00:07:53;;;;;;;9.15;4.30;;;;;;;1.33;53.29;100226.38;10257023;28;20042;-60
2023/04/06 00:12:57;;;;;;;8.88;4.15;;;;;;;1.32;53.33;100224.66;10256433;28;20141;-59
2023/04/06 00:17:58;;;;;;;6.00;3.88;;;;;;;1.26;53.67;100214.44;10254176;28;20575;-59
2023/04/06 00:23:00;;;;;;;6.53;3.92;;;;;;;1.24;53.78;100217.94;10258203;28;20529;-60
2023/04/06 00:28:03;;;;;;;7.53;3.97;;;;;;;1.03;53.96;100210.59;10252595;28;20430;-59
2023/04/06 00:33:05;;;;;;;6.03;4.10;;;;;;;1.04;54.06;100212.28;10255777;28;20199;-59
2023/04/06 00:38:07;;;;;;;7.38;4.68;;;;;;;1.02;53.99;100208.88;10256363;28;20487;-60
2023/04/06 00:43:09;;;;;;;6.78;4.47;;;;;;;0.76;54.27;100211.88;10247256;28;20049;-60
2023/04/06 00:48:11;;;;;;;6.88;4.05;;;;;;;0.74;54.62;100192.19;10268553;28;20051;-60
2023/04/06 00:53:12;;;;;;;7.50;4.22;;;;;;;0.78;54.58;100197.25;10251073;28;20507;-59
2023/04/06 00:58:15;;;;;;;9.35;4.38;;;;;;;0.82;54.41;100191.19;10284452;28;20499;-60
2023/04/06 01:03:23;;;;;;;7.97;4.80;;;;;;;0.67;54.44;100188.84;10251352;28;20050;-59
2023/04/06 01:08:26;;;;;;;8.82;4.50;;;;;;;0.65;54.75;100184.63;10275441;28;20043;-60
2023/04/06 01:13:38;;;;;;;9.20;4.45;;;;;;;0.64;54.92;100180.31;10259868;28;21584;-60
2023/04/06 01:18:46;;;;;;;6.97;4.55;;;;;;;0.63;55.18;100181.22;10258190;28;20129;-59
2023/04/06 01:23:58;;;;;;;9.32;4.07;;;;;;;0.58;55.25;100173.56;10259964;28;20046;-60
2023/04/06 01:29:08;;;;;;;8.40;4.90;;;;;;;0.54;55.17;100175.31;10257225;28;20057;-60
2023/04/06 01:34:10;;;;;;;6.80;3.90;;;;;;;0.44;55.20;100165.22;10261926;28;20046;-59
2023/04/06 01:39:12;;;;;;;9.15;4.32;;;;;;;0.41;55.45;100162.66;10260400;28;20057;-60
2023/04/06 01:44:17;;;;;;;8.00;4.50;;;;;;;0.41;55.65;100160.09;10241644;28;20047;-60
2023/04/06 01:49:23;;;;;;;7.78;4.75;;;;;;;0.40;55.52;100158.41;10273889;28;20581;-60
2023/04/06 01:54:29;;;;;;;7.45;4.70;;;;;;;0.36;55.72;100147.28;10261504;28;20078;-60
2023/04/06 01:59:43;;;;;;;9.48;4.80;;;;;;;0.34;55.80;100150.78;10275423;28;20258;-59
2023/04/06 02:04:53;;;;;;;7.43;4.55;;;;;;;0.30;55.88;100146.56;10265520;28;20086;-60
2023/04/06 02:09:55;;;;;;;10.40;5.20;;;;;;;0.18;55.74;100150.13;10265193;28;20053;-60
2023/04/06 02:15:09;;;;;;;8.90;5.20;;;;;;;-0.12;56.31;100147.13;10267827;28;20043;-59
2023/04/06 02:20:11;;;;;;;8.18;5.00;;;;;;;-0.32;56.43;100148.25;10262603;28;20082;-59
2023/04/06 02:25:13;;;;;;;8.98;5.20;;;;;;;-0.36;56.74;100143.16;10268096;28;20566;-60
2023/04/06 02:30:15;;;;;;;10.38;5.07;;;;;;;-0.26;57.04;100146.47;10269856;28;20585;-60
2023/04/06 02:35:17;;;;;;;7.63;4.93;;;;;;;-0.21;56.77;100137.84;10264960;28;20054;-60
2023/04/06 02:40:23;;;;;;;9.15;5.13;;;;;;;-0.28;56.67;100140.50;10267282;28;20050;-60
2023/04/06 02:45:26;;;;;;;7.25;5.18;;;;;;;-0.29;57.00;100137.06;10264288;28;20419;-60
2023/04/06 02:50:29;;;;;;;8.82;5.30;;;;;;;-0.23;56.97;100136.16;10277706;28;20054;-60
2023/04/06 02:55:35;;;;;;;9.93;5.53;;;;;;;-0.23;56.94;100136.16;10264102;28;20518;-59
2023/04/06 03:00:37;;;;;;;10.25;4.90;;;;;;;-0.31;56.89;100133.66;10281654;28;20078;-60
2023/04/06 03:05:39;;;;;;;10.35;5.60;;;;;;;-0.29;57.06;100131.09;10259121;28;20063;-60
2023/04/06 03:10:42;;;;;;;8.77;5.55;;;;;;;-0.28;56.95;100128.50;10269639;28;20065;-60
2023/04/06 03:15:44;;;;;;;11.63;5.70;;;;;;;-0.32;57.09;100130.28;10257953;28;20109;-60
2023/04/06 03:20:50;;;;;;;10.30;5.20;;;;;;;-0.29;57.28;100128.53;10257097;28;20399;-59
2023/04/06 03:25:53;;;;;;;7.93;5.20;;;;;;;-0.29;57.17;100131.94;10254455;28;20038;-60
2023/04/06 03:30:55;;;;;;;9.93;5.93;;;;;;;-0.37;57.27;100134.59;10241126;28;20064;-61
2023/04/06 03:36:13;;;;;;;7.45;5.40;;;;;;;-0.43;57.34;100138.97;10272662;28;20105;-60
2023/04/06 03:41:17;;;;;;;8.32;4.93;;;;;;;-0.44;57.49;100139.84;10270172;28;20422;-59
2023/04/06 03:46:27;;;;;;;9.68;5.30;;;;;;;-0.46;57.41;100141.59;10271776;28;20462;-60
2023/04/06 03:51:31;;;;;;;10.48;5.90;;;;;;;-0.56;57.51;100145.97;10256436;28;20178;-60
2023/04/06 03:56:33;;;;;;;10.23;6.10;;;;;;;-0.59;57.57;100138.31;10257574;28;20562;-60
2023/04/06 04:01:35;;;;;;;9.10;5.60;;;;;;;-0.57;57.67;100149.41;10256325;28;20059;-60
2023/04/06 04:06:37;;;;;;;10.77;6.25;;;;;;;-0.62;57.58;100146.06;10256196;28;20070;-60
2023/04/06 04:11:40;;;;;;;12.45;6.00;;;;;;;-0.63;57.75;100153.75;10288124;28;20545;-60
2023/04/06 04:16:42;;;;;;;9.82;5.40;;;;;;;-0.64;57.61;100160.63;10257834;28;20046;-60
2023/04/06 04:21:46;;;;;;;10.43;6.10;;;;;;;-0.66;57.70;100153.81;10258479;28;20066;-60
2023/04/06 04:26:51;;;;;;;12.02;6.30;;;;;;;-0.76;57.94;100163.31;10272610;28;20053;-60
2023/04/06 04:31:54;;;;;;;10.32;6.32;;;;;;;-0.81;58.02;100164.22;10256028;28;20054;-60
2023/04/06 04:36:56;;;;;;;9.32;6.90;;;;;;;-0.84;58.10;100169.41;10261072;28;20499;-60
2023/04/06 04:42:10;;;;;;;10.82;6.80;;;;;;;-0.87;58.11;100166.84;10265751;28;20058;-60
2023/04/06 04:47:18;;;;;;;12.27;6.30;;;;;;;-0.90;58.10;100172.88;10271243;28;20638;-60
2023/04/06 04:52:22;;;;;;;9.70;5.97;;;;;;;-0.85;58.01;100167.69;10264923;28;20427;-60
2023/04/06 04:57:32;;;;;;;10.25;6.47;;;;;;;-0.86;58.24;100169.41;10263222;28;20058;-60
2023/04/06 05:02:34;;;;;;;11.38;6.70;;;;;;;-0.77;58.35;100168.47;10265048;28;20182;-60
2023/04/06 05:07:47;;;;;;;9.85;6.55;;;;;;;-0.73;58.05;100171.00;10261555;28;20083;-60
2023/04/06 05:12:59;;;;;;;8.48;6.43;;;;;;;-0.68;58.07;100169.25;10278698;28;20495;-60
2023/04/06 05:18:02;;;;;;;11.75;6.85;;;;;;;-0.62;58.01;100169.19;10265071;28;20069;-60
2023/04/06 05:23:07;;;;;;;10.05;6.57;;;;;;;-0.51;57.73;100169.88;10278030;28;20175;-60
2023/04/06 05:28:09;;;;;;;11.90;6.38;;;;;;;-0.44;57.73;100174.09;10263978;28;20039;-60
2023/04/06 05:33:12;;;;;;;12.20;6.82;;;;;;;-0.42;57.73;100169.78;10284239;28;20043;-60
2023/04/06 05:38:30;;;;;;;11.80;6.30;;;;;;;-0.26;57.80;100175.59;10262136;28;20051;-60
2023/04/06 05:43:38;;;;;;;10.07;7.13;;;;;;;-0.09;57.46;100177.97;10278414;28;20051;-60
2023/04/06 05:48:40;;;;;;;10.10;6.80;;;;;;;-0.06;57.01;100180.47;10253972;28;20408;-60
2023/04/06 05:53:44;;;;;;;11.82;7.13;;;;;;;-0.24;57.55;100178.13;10262444;28;20379;-60
2023/04/06 05:58:46;;;;;;;8.75;5.95;;;;;;;0.02;57.40;100181.22;10280582;28;20143;-59
2023/04/06 06:03:52;;;;;;;8.73;6.40;;;;;;;0.28;57.16;100181.75;10262134;28;20089;-60
2023/04/06 06:08:55;;;;;;;10.20;6.40;;;;;;;0.40;56.81;100168.69;10259430;28;20519;-60
2023/04/06 06:13:57;;;;;;;11.18;6.68;;;;;;;0.44;56.54;100178.06;10288930;28;20502;-60
2023/04/06 06:18:59;;;;;;;11.70;6.78;;;;;;;0.50;56.52;100175.41;10275088;28;20098;-60
2023/04/06 06:24:01;;;;;;;9.60;6.72;;;;;;;0.59;56.51;100177.00;10258985;28;20050;-60
2023/04/06 06:29:05;;;;;;;11.55;7.25;;;;;;;0.74;56.31;100166.44;10272533;28;20459;-60
2023/04/06 06:34:10;;;;;;;9.35;6.47;;;;;;;0.84;56.34;100166.25;10290253;28;20125;-60
2023/04/06 06:39:12;;;;;;;12.45;7.10;;;;;;;0.96;56.06;100167.78;10253838;28;20109;-60
2023/04/06 06:44:14;;;;;;;11.50;7.40;;;;;;;1.11;55.84;100170.94;10275871;28;20158;-60
2023/04/06 06:49:16;;;;;;;11.13;6.63;;;;;;;1.31;55.42;100176.59;10259334;28;20065;-60
2023/04/06 06:54:17;;;;;;;9.25;6.63;;;;;;;1.45;54.97;100175.47;10263206;28;20050;-60
2023/04/06 06:59:20;;;;;;;10.10;6.45;;;;;;;1.60;54.80;100172.59;10260305;28;20438;-61
2023/04/06 07:04:24;;;;;;;13.88;7.85;;;;;;;1.81;54.41;100174.72;10277900;28;20466;-60
2023/04/06 07:09:26;;;;;;;12.20;7.47;;;;;;;1.83;54.09;100173.84;10262643;28;20074;-60
2023/04/06 07:14:28;;;;;;;10.88;7.53;;;;;;;1.91;54.19;100163.38;10255195;28;20436;-60
2023/04/06 07:19:30;;;;;;;12.57;8.35;;;;;;;1.93;53.80;100167.59;10257266;28;20051;-60
2023/04/06 07:24:32;;;;;;;12.77;7.90;;;;;;;2.05;53.49;100161.34;10263295;28;20455;-60
2023/04/06 07:29:34;;;;;;;13.82;8.10;;;;;;;2.35;53.18;100157.22;10263488;28;20681;-60
2023/04/06 07:34:36;;;;;;;11.25;7.97;;;;;;;2.41;53.20;100160.53;10260121;28;20051;-60
2023/04/06 07:39:38;;;;;;;14.80;7.97;;;;;;;2.62;52.59;100161.75;10263659;28;20154;-60
2023/04/06 07:44:40;;;;;;;12.82;7.97;;;;;;;3.34;51.96;100146.97;10246712;28;20042;-60
2023/04/06 07:49:43;;;;;;;14.05;8.20;;;;;;;4.19;50.24;100144.56;10264055;28;20589;-60
2023/04/06 07:54:45;;;;;;;11.93;8.18;;;;;;;4.90;48.99;100134.47;10256860;28;20423;-60
2023/04/06 07:59:47;;;;;;;12.05;8.10;;;;;;;5.37;47.50;100131.09;10254319;28;20577;-60
2023/04/06 08:04:49;;;;;;;15.43;8.15;;;;;;;5.64;46.68;100130.09;10259269;28;20057;-60
2023/04/06 08:09:53;;;;;;;12.45;7.28;;;;;;;6.08;45.85;100129.28;10255509;28;20047;-60
2023/04/06 08:14:55;;;;;;;10.90;6.85;;;;;;;6.54;44.76;100124.91;10252847;28;20046;-60
2023/04/06 08:19:56;;;;;;;12.43;7.18;;;;;;;6.93;43.97;100131.09;10256677;28;20054;-60
2023/04/06 08:24:58;;;;;;;13.07;7.82;;;;;;;7.16;43.28;100126.59;10259117;28;20051;-60
2023/04/06 08:30:00;;;;;;;10.90;7.30;;;;;;;7.47;42.34;100120.09;10253834;28;20141;-60
2023/04/06 08:35:02;;;;;;;14.50;8.00;;;;;;;7.80;41.91;100115.97;10262279;28;20134;-60
2023/04/06 08:40:04;;;;;;;12.75;7.07;;;;;;;8.28;41.16;100113.72;10252717;28;20046;-60
2023/04/06 08:45:06;;;;;;;10.05;7.13;;;;;;;8.60;40.24;100112.19;10257780;28;20053;-60
2023/04/06 08:50:13;;;;;;;11.82;6.95;;;;;;;8.85;39.27;100107.47;10251719;28;20050;-60
2023/04/06 08:55:16;;;;;;;11.88;6.93;;;;;;;8.95;39.06;100102.63;10257293;28;20649;-60
2023/04/06 09:00:18;;;;;;;12.32;6.78;;;;;;;9.19;38.27;100097.00;10253834;28;20138;-60
2023/04/06 09:05:20;;;;;;;16.23;7.80;;;;;;;9.48;38.33;100091.09;10265747;28;20150;-60
2023/04/06 09:10:24;;;;;;;12.63;7.78;;;;;;;9.67;37.84;100093.59;10255262;28;20218;-60
2023/04/06 09:15:26;;;;;;;10.93;7.10;;;;;;;9.88;37.45;100086.38;10252740;28;20283;-60
2023/04/06 09:20:28;;;;;;;12.23;7.60;;;;;;;9.91;37.54;100081.00;10255253;28;20108;-60
2023/04/06 09:25:31;;;;;;;12.57;7.78;;;;;;;10.14;36.66;100077.94;10262068;28;20473;-60
2023/04/06 09:30:34;;;;;;;15.32;7.70;;;;;;;10.63;36.42;100065.56;10260859;28;20074;-60
2023/04/06 09:35:36;;;;;;;14.95;7.20;;;;;;;10.75;36.14;100062.22;10263358;28;20062;-60
2023/04/06 09:40:48;;;;;;;11.35;7.30;;;;;;;11.30;34.74;100053.66;10263309;28;20522;-60
2023/04/06 09:46:04;;;;;;;12.35;7.78;;;;;;;11.57;35.57;100045.91;10263585;28;20499;-60
2023/04/06 09:51:10;;;;;;;13.55;8.07;;;;;;;12.05;34.89;100032.31;10260326;28;20406;-60
2023/04/06 09:56:16;;;;;;;11.88;8.07;;;;;;;12.25;35.08;100030.19;10263585;28;20405;-60
2023/04/06 10:01:20;;;;;;;13.80;8.48;;;;;;;12.47;34.79;100022.63;10257720;28;20043;-60
2023/04/06 10:06:27;;;;;;;13.95;8.15;;;;;;;13.24;33.49;100019.97;10269287;28;20066;-60
2023/04/06 10:11:29;;;;;;;14.88;8.25;;;;;;;13.13;33.02;100004.94;10262135;28;20137;-60
2023/04/06 10:16:31;;;;;;;11.65;7.88;;;;;;;13.68;32.88;100005.44;10263037;28;20057;-61
2023/04/06 10:21:35;;;;;;;14.70;8.77;;;;;;;14.01;31.19;100001.31;10257911;28;20066;-60
2023/04/06 10:26:37;;;;;;;14.73;8.80;;;;;;;13.95;31.67;100002.59;10263420;28;20047;-60
2023/04/06 10:31:43;;;;;;;12.95;8.02;;;;;;;14.39;30.13;99992.28;10256361;28;20054;-60
2023/04/06 10:36:45;;;;;;;13.43;8.50;;;;;;;14.19;30.09;100000.81;10262744;28;20047;-60
2023/04/06 10:41:48;;;;;;;15.07;8.05;;;;;;;14.24;30.52;100000.50;10273174;28;20049;-60
2023/04/06 10:47:00;;;;;;;12.25;7.95;;;;;;;14.41;28.00;99992.19;10262755;28;20046;-61
2023/04/06 10:52:02;;;;;;;13.55;8.05;;;;;;;14.40;29.72;99985.25;10257169;28;20062;-60
2023/04/06 10:57:03;;;;;;;10.68;7.05;;;;;;;14.60;29.72;99989.88;10279912;28;20637;-60
2023/04/06 11:02:05;;;;;;;12.52;7.47;;;;;;;14.36;28.41;99984.63;10257220;28;20371;-60
2023/04/06 11:07:07;;;;;;;12.73;7.63;;;;;;;14.39;29.33;99991.47;10285906;28;20145;-61
2023/04/06 11:12:30;;;;;;;13.60;6.93;;;;;;;14.54;27.85;99982.44;10273652;28;20058;-61
2023/04/06 11:17:36;;;;;;;12.38;6.95;;;;;;;14.83;28.01;99974.97;10253516;28;20062;-60
2023/04/06 11:22:53;;;;;;;11.40;6.78;;;;;;;15.06;27.63;99974.06;10250603;28;20475;-60
2023/04/06 11:27:55;;;;;;;11.57;6.60;;;;;;;15.19;28.76;99956.31;10258334;28;20039;-60
2023/04/06 11:33:02;;;;;;;12.10;6.32;;;;;;;15.41;28.09;99951.88;10256647;28;20050;-60
2023/04/06 11:38:04;;;;;;;9.63;5.97;;;;;;;15.38;28.08;99936.31;10258235;28;20137;-60
2023/04/06 11:43:10;;;;;;;8.73;5.53;;;;;;;15.48;28.10;99936.41;10256497;28;20055;-61
2023/04/06 11:48:22;;;;;;;9.73;6.55;;;;;;;15.16;27.79;99944.22;10255543;28;20120;-61
2023/04/06 11:53:28;;;;;;;11.75;6.10;;;;;;;15.32;27.71;99942.09;10251477;28;20050;-60
2023/04/06 11:58:30;;;;;;;10.60;6.15;;;;;;;15.64;28.05;99926.34;10259882;28;20133;-60
2023/04/06 12:03:32;;;;;;;8.93;5.75;;;;;;;15.80;27.92;99932.06;10247975;28;20047;-60
2023/04/06 12:08:34;;;;;;;10.75;6.32;;;;;;;16.02;27.92;99920.56;10254948;28;20051;-60
2023/04/06 12:13:37;;;;;;;10.70;6.53;;;;;;;16.05;27.71;99926.47;10262555;28;20050;-61
2023/04/06 12:18:38;;;;;;;12.20;5.68;;;;;;;15.85;27.91;99927.25;10258233;28;20674;-61
2023/04/06 12:23:40;;;;;;;12.77;6.50;;;;;;;15.87;27.74;99920.06;10254059;28;20062;-58
2023/04/06 12:28:44;;;;;;;9.55;5.63;;;;;;;15.98;27.91;99925.28;10258667;28;20073;-58
2023/04/06 12:33:50;;;;;;;9.07;5.55;;;;;;;16.18;27.44;99921.81;10256791;28;20419;-60
2023/04/06 12:38:52;;;;;;;10.55;6.25;;;;;;;15.89;27.56;99923.41;10258559;28;20043;-60
2023/04/06 12:43:54;;;;;;;14.77;6.03;;;;;;;15.47;27.75;99920.75;10257227;28;20082;-60
2023/04/06 12:48:57;;;;;;;10.80;6.45;;;;;;;15.27;27.83;99914.41;10255393;28;20346;-60
2023/04/06 12:53:59;;;;;;;11.00;6.00;;;;;;;15.04;28.34;99915.38;10249315;28;20051;-60
2023/04/06 12:59:01;;;;;;;12.68;6.30;;;;;;;15.42;28.17;99907.91;10258002;28;20082;-60
2023/04/06 13:04:03;;;;;;;9.50;5.70;;;;;;;15.59;27.93;99904.78;10260258;28;20375;-60
2023/04/06 13:09:05;;;;;;;9.80;5.60;;;;;;;15.46;28.12;99898.81;10258066;28;20061;-60
2023/04/06 13:14:07;;;;;;;9.90;6.10;;;;;;;15.26;27.88;99889.88;10260233;28;20133;-60
2023/04/06 13:19:10;;;;;;;13.52;5.60;;;;;;;15.14;28.82;99895.28;10260692;28;20046;-60
2023/04/06 13:24:12;;;;;;;10.55;5.22;;;;;;;15.24;28.51;99890.94;10256599;28;20495;-60
2023/04/06 13:29:16;;;;;;;8.07;5.40;;;;;;;15.45;28.64;99896.31;10277355;28;20058;-60
2023/04/06 13:34:18;;;;;;;10.27;6.15;;;;;;;15.31;27.92;99886.84;10260915;28;20047;-61
2023/04/06 13:39:20;;;;;;;10.27;5.68;;;;;;;15.26;28.00;99889.88;10257581;28;20051;-60
2023/04/06 13:44:22;;;;;;;10.18;5.40;;;;;;;15.18;28.02;99883.53;10259650;28;20126;-60
2023/04/06 13:49:24;;;;;;;7.38;5.03;;;;;;;15.13;27.87;99883.03;10254704;28;20054;-61
2023/04/06 13:54:26;;;;;;;11.77;4.97;;;;;;;14.90;27.49;99884.03;10261100;28;20058;-60
2023/04/06 13:59:33;;;;;;;9.50;4.82;;;;;;;14.82;27.84;99881.16;10270006;28;20047;-60
2023/04/06 14:04:35;;;;;;;9.52;4.82;;;;;;;15.10;27.75;99873.56;10257879;28;20049;-60
2023/04/06 14:09:37;;;;;;;9.45;4.68;;;;;;;15.03;27.38;99876.81;10254837;28;20348;-60
2023/04/06 14:14:38;;;;;;;8.90;4.57;;;;;;;15.06;27.12;99873.97;10274620;28;20057;-60
2023/04/06 14:19:40;;;;;;;7.22;4.80;;;;;;;14.82;27.23;99891.69;10255723;28;20051;-60
2023/04/06 14:24:42;;;;;;;8.20;4.63;;;;;;;14.36;27.02;99881.19;10268826;28;20062;-60
2023/04/06 14:29:44;;;;;;;7.45;4.95;;;;;;;14.47;27.13;99887.28;10255637;28;20053;-57
2023/04/06 14:34:46;;;;;;;8.20;5.40;;;;;;;14.43;27.95;99870.06;10254929;28;20050;-60
2023/04/06 14:39:47;;;;;;;8.10;5.18;;;;;;;14.59;27.58;99877.69;10264474;28;20047;-60
2023/04/06 14:44:50;;;;;;;8.82;5.05;;;;;;;14.49;27.36;99871.44;10254897;28;20049;-60
2023/04/06 14:49:53;;;;;;;7.80;4.10;;;;;;;14.68;27.28;99873.47;10253734;28;20046;-60
2023/04/06 14:54:54;;;;;;;8.25;5.32;;;;;;;14.69;26.85;99873.38;10257302;28;20039;-60
2023/04/06 14:59:56;;;;;;;9.30;4.80;;;;;;;14.32;27.49;99880.59;10256007;28;20051;-60
2023/04/06 15:04:59;;;;;;;8.55;4.60;;;;;;;14.06;27.20;99870.34;10259376;28;20226;-60
2023/04/06 15:10:00;;;;;;;6.60;3.72;;;;;;;13.74;27.36;99872.72;10258285;28;20050;-60
2023/04/06 15:15:02;;;;;;;7.57;4.65;;;;;;;13.50;28.24;99874.50;10255337;28;20049;-60
2023/04/06 15:20:05;;;;;;;8.48;4.70;;;;;;;13.52;28.34;99885.75;10249478;28;20047;-60
2023/04/06 15:25:07;;;;;;;6.82;4.55;;;;;;;13.38;28.92;99880.63;10272547;28;20061;-60
2023/04/06 15:30:09;;;;;;;5.82;4.18;;;;;;;13.34;29.30;99897.56;10251623;28;20046;-60
2023/04/06 15:35:12;;;;;;;7.93;4.85;;;;;;;12.90;31.00;99904.16;10253304;28;20459;-60
2023/04/06 15:40:15;;;;;;;9.80;5.30;;;;;;;12.54;31.97;99914.56;10250391;28;20057;-60
2023/04/06 15:45:17;;;;;;;9.88;5.10;;;;;;;12.40;32.77;99921.69;10256222;28;20091;-60
2023/04/06 15:50:19;;;;;;;7.35;4.80;;;;;;;12.24;33.25;99913.97;10255251;28;20062;-60
2023/04/06 15:55:21;;;;;;;10.10;5.18;;;;;;;12.18;33.59;99917.00;10253831;28;20042;-60
2023/04/06 16:00:24;;;;;;;7.70;5.57;;;;;;;12.41;33.43;99916.34;10257461;28;20053;-60
2023/04/06 16:05:28;;;;;;;31.98;5.85;;;;;;;12.53;33.60;99912.91;10255862;28;20054;-61
2023/04/06 16:10:33;;;;;;;10.80;4.80;;;;;;;12.27;33.75;99918.19;10258841;28;20051;-60
2023/04/06 16:15:35;;;;;;;6.72;4.63;;;;;;;12.32;34.18;99918.72;10263917;28;20047;-60
2023/04/06 16:20:37;;;;;;;9.15;5.30;;;;;;;12.22;34.77;99918.47;10262464;28;20414;-60
2023/04/06 16:25:39;;;;;;;10.30;4.90;;;;;;;12.07;35.57;99924.72;10263630;28;20543;-60
2023/04/06 16:30:41;;;;;;;8.85;5.15;;;;;;;12.07;35.65;99925.56;10277524;28;20374;-58
2023/04/06 16:35:48;;;;;;;7.70;4.93;;;;;;;11.84;36.16;99926.25;10270214;28;20139;-60
2023/04/06 16:40:59;;;;;;;6.97;4.60;;;;;;;11.76;36.45;99925.06;10266837;28;20051;-60
2023/04/06 16:46:01;;;;;;;9.45;4.85;;;;;;;11.71;36.37;99922.75;10271960;28;20039;-60
2023/04/06 16:51:06;;;;;;;7.00;4.68;;;;;;;11.76;36.27;99919.84;10269581;28;20419;-60
2023/04/06 16:56:08;;;;;;;8.75;4.55;;;;;;;11.64;36.43;99921.44;10271208;28;20049;-60
2023/04/06 17:01:19;;;;;;;7.50;5.03;;;;;;;11.57;36.59;99919.31;10268650;28;20050;-60
2023/04/06 17:06:21;;;;;;;9.23;6.25;;;;;;;11.41;37.03;99923.84;10270768;28;20125;-60
2023/04/06 17:11:23;;;;;;;7.28;4.97;;;;;;;11.08;38.32;99919.78;10269209;28;20042;-60
2023/04/06 17:16:36;;;;;;;8.07;5.22;;;;;;;10.89;39.17;99926.22;10270459;28;20411;-60
2023/04/06 17:21:40;;;;;;;6.85;5.10;;;;;;;10.77;40.18;99930.41;10269135;28;20639;-59
2023/04/06 17:26:42;;;;;;;7.40;4.80;;;;;;;10.82;41.07;99940.59;10269771;28;20047;-60
2023/04/06 17:31:45;;;;;;;8.02;4.80;;;;;;;10.78;41.49;99945.19;10268444;28;20061;-60
2023/04/06 17:36:46;;;;;;;6.57;4.82;;;;;;;10.59;41.96;99955.06;10268785;28;20043;-60
2023/04/06 17:41:48;;;;;;;7.38;4.82;;;;;;;10.40;42.69;99955.28;10267379;28;20073;-60
2023/04/06 17:46:50;;;;;;;9.43;5.40;;;;;;;10.14;44.85;99952.50;10267996;28;20051;-60
2023/04/06 17:51:52;;;;;;;10.60;5.90;;;;;;;9.94;46.56;99968.47;10265957;28;20082;-60
2023/04/06 17:56:54;;;;;;;9.27;6.15;;;;;;;9.66;48.14;99971.81;10267940;28;20046;-60
2023/04/06 18:01:56;;;;;;;10.10;6.32;;;;;;;9.55;48.78;99980.19;10267391;28;20459;-59
2023/04/06 18:06:58;;;;;;;7.97;6.10;;;;;;;9.50;49.68;99994.44;10267889;28;20137;-60
2023/04/06 18:12:00;;;;;;;10.55;6.03;;;;;;;9.59;49.43;99991.31;10266318;28;20446;-60
2023/04/06 18:17:02;;;;;;;8.43;5.93;;;;;;;9.55;49.95;100000.22;10267054;28;20130;-60
2023/04/06 18:22:03;;;;;;;9.45;6.00;;;;;;;9.49;50.74;100003.16;10264709;28;20082;-60
2023/04/06 18:27:05;;;;;;;9.05;6.35;;;;;;;9.45;50.79;100004.25;10281778;28;20046;-60
2023/04/06 18:32:07;;;;;;;10.75;7.03;;;;;;;9.47;51.34;100003.25;10266075;28;20586;-60
2023/04/06 18:37:09;;;;;;;8.98;6.88;;;;;;;9.39;52.14;100005.44;10266621;28;20089;-59
2023/04/06 18:42:10;;;;;;;12.48;9.25;;;;;;;9.26;53.20;100009.63;10263690;28;20045;-60
2023/04/06 18:47:12;;;;;;;10.23;7.53;;;;;;;9.21;53.28;99998.59;10266084;28;20055;-60
2023/04/06 18:52:14;;;;;;;18.27;11.65;;;;;;;9.16;54.44;100003.19;10259224;28;20084;-59
2023/04/06 18:57:16;;;;;;;12.23;9.70;;;;;;;9.06;54.74;100015.06;10262944;28;20050;-60
2023/04/06 19:02:17;;;;;;;10.13;8.25;;;;;;;9.11;55.14;100013.06;10264606;28;20065;-59
2023/04/06 19:07:21;;;;;;;11.82;8.50;;;;;;;9.20;55.43;100015.16;10266060;28;20047;-59
2023/04/06 19:12:22;;;;;;;11.35;8.38;;;;;;;9.14;55.79;100010.28;10264395;28;20051;-59
2023/04/06 19:17:25;;;;;;;11.15;8.15;;;;;;;9.11;56.23;100020.88;10263140;28;20047;-60
2023/04/06 19:22:27;;;;;;;11.02;8.32;;;;;;;9.07;56.21;100024.56;10278843;28;20074;-60
2023/04/06 19:27:29;;;;;;;18.33;14.85;;;;;;;8.83;56.40;100013.63;10261493;28;20495;-60
2023/04/06 19:32:31;;;;;;;20.30;16.85;;;;;;;8.87;57.19;100019.56;10262892;28;20573;-60
2023/04/06 19:37:35;;;;;;;17.27;12.75;;;;;;;8.90;57.15;100014.16;10267339;28;20793;-59
2023/04/06 19:42:37;;;;;;;15.35;11.65;;;;;;;8.94;57.66;100018.28;10263025;28;20042;-60
2023/04/06 19:47:39;;;;;;;12.80;9.23;;;;;;;9.00;57.63;100014.50;10262548;28;20043;-59
2023/04/06 19:52:41;;;;;;;12.88;10.13;;;;;;;8.97;57.58;100018.16;10257934;28;20918;-60
2023/04/06 19:57:43;;;;;;;14.20;10.80;;;;;;;8.80;57.89;100013.81;10259771;28;20053;-60
2023/04/06 20:02:45;;;;;;;12.25;9.63;;;;;;;8.62;58.50;100004.31;10260914;28;20051;-60
2023/04/06 20:07:48;;;;;;;12.20;9.25;;;;;;;8.32;58.93;100003.25;10258027;28;20047;-60
2023/04/06 20:12:50;;;;;;;11.60;8.98;;;;;;;8.39;59.04;100004.59;10262308;28;20177;-60
2023/04/06 20:17:52;;;;;;;12.88;9.57;;;;;;;8.44;58.59;99996.56;10251964;28;20051;-60
2023/04/06 20:22:54;;;;;;;13.48;9.73;;;;;;;8.39;58.86;99994.19;10254251;28;20050;-60
2023/04/06 20:27:56;;;;;;;14.13;10.65;;;;;;;8.36;59.04;99988.28;10251458;28;20053;-60
2023/04/06 20:32:58;;;;;;;14.40;11.15;;;;;;;8.37;59.53;99984.75;10252786;28;20142;-59
2023/04/06 20:38:00;;;;;;;13.35;9.70;;;;;;;8.35;59.52;99992.66;10255536;28;20057;-60
2023/04/06 20:43:02;;;;;;;16.00;10.55;;;;;;;8.13;59.91;99980.75;10254075;28;20039;-60
2023/04/06 20:48:06;;;;;;;15.00;11.43;;;;;;;8.29;60.18;99971.25;10267885;28;20038;-59
2023/04/06 20:53:08;;;;;;;16.42;12.07;;;;;;;8.26;60.08;99971.44;10252875;28;20058;-59
2023/04/06 20:58:10;;;;;;;13.50;10.27;;;;;;;8.05;60.24;99965.47;10254433;28;20418;-60
2023/04/06 21:03:12;;;;;;;16.48;12.43;;;;;;;8.04;60.77;99971.59;10252686;28;20374;-59
2023/04/06 21:08:14;;;;;;;14.93;10.20;;;;;;;8.02;60.73;99958.66;10266723;28;20447;-60
2023/04/06 21:13:16;;;;;;;13.02;10.00;;;;;;;7.96;60.96;99953.72;10251004;28;20403;-59
2023/04/06 21:18:19;;;;;;;12.88;10.52;;;;;;;8.00;60.84;99949.22;10255313;28;20051;-60
2023/04/06 21:23:21;;;;;;;18.02;13.07;;;;;;;8.06;61.39;99953.31;10261350;28;20737;-60
2023/04/06 21:28:24;;;;;;;19.25;11.40;;;;;;;8.24;60.78;99937.59;10260507;28;20054;-60
2023/04/06 21:33:26;;;;;;;15.23;12.02;;;;;;;8.33;60.94;99937.16;10257787;28;20396;-59
2023/04/06 21:38:28;;;;;;;13.95;11.65;;;;;;;8.32;60.88;99929.44;10259073;28;20266;-60
2023/04/06 21:43:29;;;;;;;15.32;12.23;;;;;;;8.16;61.53;99926.72;10259731;28;20284;-59
2023/04/06 21:48:31;;;;;;;21.63;15.65;;;;;;;7.94;61.80;99924.31;10260541;28;20084;-60
2023/04/06 21:53:33;;;;;;;19.73;15.10;;;;;;;7.76;62.40;99924.38;10260800;28;20055;-60
2023/04/06 21:58:35;;;;;;;17.65;14.50;;;;;;;7.60;62.99;99918.22;10257250;28;20079;-60
2023/04/06 22:03:37;;;;;;;19.52;15.05;;;;;;;7.69;62.95;99923.00;10258610;28;20043;-59
2023/04/06 22:08:40;;;;;;;15.15;12.98;;;;;;;7.68;62.93;99919.53;10259466;28;20539;-59
2023/04/06 22:13:42;;;;;;;27.00;18.83;;;;;;;7.48;63.82;99906.63;10273705;28;20055;-59
2023/04/06 22:18:44;;;;;;;22.35;17.02;;;;;;;7.42;64.23;99908.69;10259129;28;20503;-60
2023/04/06 22:23:45;;;;;;;14.68;12.52;;;;;;;7.52;63.87;99907.34;10259235;28;20054;-59
2023/04/06 22:28:47;;;;;;;16.23;13.15;;;;;;;7.72;63.54;99891.59;10256230;28;20410;-59
2023/04/06 22:33:49;;;;;;;26.00;17.80;;;;;;;7.93;63.67;99886.19;10259505;28;20490;-59
2023/04/06 22:38:51;;;;;;;18.20;15.27;;;;;;;7.92;63.70;99894.06;10257950;28;20038;-59
2023/04/06 22:43:53;;;;;;;15.43;12.25;;;;;;;7.90;63.21;99886.34;10260195;28;20519;-59
2023/04/06 22:48:54;;;;;;;23.30;17.60;;;;;;;7.89;63.66;99884.66;10260319;28;20046;-59
2023/04/06 22:53:56;;;;;;;18.67;15.63;;;;;;;7.85;63.45;99877.88;10257714;28;20058;-59
2023/04/06 22:58:58;;;;;;;21.60;17.65;;;;;;;7.82;63.89;99870.25;10256277;28;20082;-59
2023/04/06 23:04:00;;;;;;;18.00;14.48;;;;;;;7.83;63.65;99869.31;10255388;28;20046;-59
2023/04/06 23:09:02;;;;;;;20.10;14.57;;;;;;;7.79;63.69;99861.75;10257688;28;20483;-60
2023/04/06 23:14:04;;;;;;;22.50;16.77;;;;;;;7.90;63.72;99857.69;10257806;28;20198;-60
2023/04/06 23:19:06;;;;;;;19.20;15.13;;;;;;;7.95;63.54;99852.25;10256680;28;20403;-60